sensor_id;sensor_type;location;lat;lon;timestamp;P1;durP1;ratioP1;P2;durP2;ratioP2
23490;SDS011;14683;50.038;8.078;2024-02-14T02:53:55;8.02;;;5.13;;
23490;SDS011;14683;50.038;8.078;2024-02-14T02:56:56;6.88;;;5.03;;
23490;SDS011;14683;50.038;8.078;2024-02-14T02:59:59;8.75;;;5.15;;
23490;SDS011;14683;50.038;8.078;2024-02-14T03:03:00;8.63;;;6.07;;
23490;SDS011;14683;50.038;8.078;2024-02-14T03:06:03;7.10;;;5.57;;
23490;SDS011;14683;50.038;8.078;2024-02-14T03:09:05;5.55;;;5.00;;
23490;SDS011;14683;50.038;8.078;2024-02-14T03:12:06;5.93;;;5.03;;
23490;SDS011;14683;50.038;8.078;2024-02-14T03:15:09;7.35;;;5.03;;
23490;SDS011;14683;50.038;8.078;2024-02-14T03:18:11;7.35;;;5.32;;
23490;SDS011;14683;50.038;8.078;2024-02-14T03:21:12;7.55;;;4.88;;
23490;SDS011;14683;50.038;8.078;2024-02-14T03:24:13;7.35;;;5.43;;
23490;SDS011;14683;50.038;8.078;2024-02-14T03:27:15;7.43;;;5.25;;
23490;SDS011;14683;50.038;8.078;2024-02-14T03:30:18;7.57;;;5.05;;
23490;SDS011;14683;50.038;8.078;2024-02-14T03:33:19;9.15;;;5.07;;
23490;SDS011;14683;50.038;8.078;2024-02-14T03:36:21;9.57;;;5.70;;
23490;SDS011;14683;50.038;8.078;2024-02-14T03:39:22;6.05;;;4.95;;
23490;SDS011;14683;50.038;8.078;2024-02-14T03:42:23;5.97;;;5.20;;
23490;SDS011;14683;50.038;8.078;2024-02-14T03:45:24;5.80;;;5.10;;
23490;SDS011;14683;50.038;8.078;2024-02-14T03:48:25;10.50;;;5.43;;
23490;SDS011;14683;50.038;8.078;2024-02-14T03:51:26;6.78;;;4.95;;
23490;SDS011;14683;50.038;8.078;2024-02-14T03:54:27;8.68;;;4.95;;
23490;SDS011;14683;50.038;8.078;2024-02-14T03:57:28;6.65;;;5.40;;
23490;SDS011;14683;50.038;8.078;2024-02-14T04:00:29;7.10;;;5.07;;
23490;SDS011;14683;50.038;8.078;2024-02-14T04:03:31;8.27;;;5.40;;
23490;SDS011;14683;50.038;8.078;2024-02-14T04:06:32;7.07;;;5.13;;
23490;SDS011;14683;50.038;8.078;2024-02-14T04:09:33;8.85;;;5.03;;
23490;SDS011;14683;50.038;8.078;2024-02-14T04:12:34;7.97;;;5.35;;
23490;SDS011;14683;50.038;8.078;2024-02-14T04:15:35;7.10;;;5.90;;
23490;SDS011;14683;50.038;8.078;2024-02-14T04:18:36;7.07;;;4.72;;
23490;SDS011;14683;50.038;8.078;2024-02-14T04:21:37;7.63;;;4.63;;
23490;SDS011;14683;50.038;8.078;2024-02-14T04:24:39;9.98;;;5.05;;
23490;SDS011;14683;50.038;8.078;2024-02-14T04:27:40;11.32;;;4.78;;
23490;SDS011;14683;50.038;8.078;2024-02-14T04:30:41;9.48;;;4.50;;
23490;SDS011;14683;50.038;8.078;2024-02-14T04:33:42;6.38;;;4.47;;
23490;SDS011;14683;50.038;8.078;2024-02-14T04:36:44;4.57;;;3.90;;
23490;SDS011;14683;50.038;8.078;2024-02-14T04:39:46;8.63;;;4.40;;
23490;SDS011;14683;50.038;8.078;2024-02-14T04:42:47;4.57;;;3.90;;
23490;SDS011;14683;50.038;8.078;2024-02-14T04:45:48;8.15;;;4.68;;
23490;SDS011;14683;50.038;8.078;2024-02-14T04:48:49;5.75;;;3.90;;
23490;SDS011;14683;50.038;8.078;2024-02-14T04:51:51;6.05;;;3.90;;
23490;SDS011;14683;50.038;8.078;2024-02-14T04:54:52;4.85;;;3.63;;
23490;SDS011;14683;50.038;8.078;2024-02-14T04:57:53;6.88;;;4.20;;
23490;SDS011;14683;50.038;8.078;2024-02-14T05:00:55;5.30;;;4.03;;
23490;SDS011;14683;50.038;8.078;2024-02-14T05:03:56;6.28;;;3.90;;
23490;SDS011;14683;50.038;8.078;2024-02-14T05:06:57;5.95;;;4.10;;
23490;SDS011;14683;50.038;8.078;2024-02-14T05:09:58;5.32;;;3.67;;
23490;SDS011;14683;50.038;8.078;2024-02-14T05:12:59;4.38;;;3.42;;
23490;SDS011;14683;50.038;8.078;2024-02-14T05:16:02;4.60;;;3.70;;
23490;SDS011;14683;50.038;8.078;2024-02-14T05:19:04;6.07;;;4.25;;
23490;SDS011;14683;50.038;8.078;2024-02-14T05:22:05;6.43;;;4.03;;
23490;SDS011;14683;50.038;8.078;2024-02-14T05:25:06;8.10;;;3.83;;
23490;SDS011;14683;50.038;8.078;2024-02-14T05:28:09;6.03;;;3.65;;
23490;SDS011;14683;50.038;8.078;2024-02-14T05:31:14;5.85;;;3.40;;
23490;SDS011;14683;50.038;8.078;2024-02-14T05:34:17;3.20;;;2.90;;
23490;SDS011;14683;50.038;8.078;2024-02-14T05:37:18;5.53;;;3.30;;
23490;SDS011;14683;50.038;8.078;2024-02-14T05:40:19;5.13;;;3.78;;
23490;SDS011;14683;50.038;8.078;2024-02-14T05:43:20;4.97;;;3.30;;
23490;SDS011;14683;50.038;8.078;2024-02-14T05:46:22;5.00;;;3.30;;
23490;SDS011;14683;50.038;8.078;2024-02-14T05:49:23;7.10;;;2.83;;
23490;SDS011;14683;50.038;8.078;2024-02-14T05:52:25;3.97;;;2.38;;
23490;SDS011;14683;50.038;8.078;2024-02-14T05:55:26;7.28;;;2.20;;
23490;SDS011;14683;50.038;8.078;2024-02-14T05:58:27;3.50;;;2.05;;
23490;SDS011;14683;50.038;8.078;2024-02-14T06:01:29;2.50;;;1.98;;
23490;SDS011;14683;50.038;8.078;2024-02-14T06:04:30;4.97;;;2.20;;
23490;SDS011;14683;50.038;8.078;2024-02-14T06:07:31;2.17;;;1.90;;
23490;SDS011;14683;50.038;8.078;2024-02-14T06:10:32;4.50;;;2.50;;
23490;SDS011;14683;50.038;8.078;2024-02-14T06:13:35;3.75;;;2.15;;
23490;SDS011;14683;50.038;8.078;2024-02-14T06:16:39;3.83;;;2.03;;
23490;SDS011;14683;50.038;8.078;2024-02-14T06:19:40;5.18;;;2.15;;
23490;SDS011;14683;50.038;8.078;2024-02-14T06:22:41;5.47;;;2.50;;
23490;SDS011;14683;50.038;8.078;2024-02-14T06:25:43;2.75;;;2.00;;
23490;SDS011;14683;50.038;8.078;2024-02-14T06:28:44;4.70;;;2.20;;
23490;SDS011;14683;50.038;8.078;2024-02-14T06:31:45;7.00;;;2.58;;
23490;SDS011;14683;50.038;8.078;2024-02-14T06:34:47;3.50;;;2.30;;
23490;SDS011;14683;50.038;8.078;2024-02-14T06:37:48;4.10;;;2.15;;
23490;SDS011;14683;50.038;8.078;2024-02-14T06:40:49;5.55;;;2.63;;
23490;SDS011;14683;50.038;8.078;2024-02-14T06:43:51;5.25;;;2.28;;
23490;SDS011;14683;50.038;8.078;2024-02-14T06:46:52;3.42;;;2.58;;
23490;SDS011;14683;50.038;8.078;2024-02-14T06:49:53;4.65;;;2.08;;
23490;SDS011;14683;50.038;8.078;2024-02-14T06:52:54;3.38;;;2.13;;
23490;SDS011;14683;50.038;8.078;2024-02-14T06:56:00;5.20;;;2.55;;
23490;SDS011;14683;50.038;8.078;2024-02-14T06:59:01;3.67;;;2.00;;
23490;SDS011;14683;50.038;8.078;2024-02-14T07:02:03;4.47;;;2.63;;
23490;SDS011;14683;50.038;8.078;2024-02-14T07:05:04;3.95;;;2.47;;
23490;SDS011;14683;50.038;8.078;2024-02-14T07:08:08;3.75;;;2.20;;
23490;SDS011;14683;50.038;8.078;2024-02-14T07:11:09;4.32;;;2.70;;
23490;SDS011;14683;50.038;8.078;2024-02-14T07:14:10;3.15;;;2.72;;
23490;SDS011;14683;50.038;8.078;2024-02-14T07:17:11;2.63;;;2.30;;
23490;SDS011;14683;50.038;8.078;2024-02-14T07:20:12;8.27;;;2.75;;
23490;SDS011;14683;50.038;8.078;2024-02-14T07:23:14;5.07;;;2.50;;
23490;SDS011;14683;50.038;8.078;2024-02-14T07:26:15;3.97;;;2.30;;
23490;SDS011;14683;50.038;8.078;2024-02-14T07:29:16;3.25;;;2.10;;
23490;SDS011;14683;50.038;8.078;2024-02-14T07:32:17;7.15;;;2.65;;
23490;SDS011;14683;50.038;8.078;2024-02-14T07:35:18;3.42;;;2.40;;
23490;SDS011;14683;50.038;8.078;2024-02-14T07:38:20;4.65;;;2.67;;
23490;SDS011;14683;50.038;8.078;2024-02-14T07:41:21;3.65;;;2.33;;
23490;SDS011;14683;50.038;8.078;2024-02-14T07:44:22;5.13;;;2.65;;
23490;SDS011;14683;50.038;8.078;2024-02-14T07:47:23;5.43;;;2.58;;
23490;SDS011;14683;50.038;8.078;2024-02-14T07:50:25;2.67;;;2.20;;
23490;SDS011;14683;50.038;8.078;2024-02-14T07:53:28;4.03;;;2.40;;
23490;SDS011;14683;50.038;8.078;2024-02-14T07:56:30;3.10;;;2.40;;
23490;SDS011;14683;50.038;8.078;2024-02-14T07:59:31;2.95;;;2.20;;
23490;SDS011;14683;50.038;8.078;2024-02-14T08:02:33;3.78;;;2.20;;
23490;SDS011;14683;50.038;8.078;2024-02-14T08:05:34;3.20;;;2.53;;
23490;SDS011;14683;50.038;8.078;2024-02-14T08:08:35;2.25;;;2.05;;
23490;SDS011;14683;50.038;8.078;2024-02-14T08:11:44;2.75;;;2.20;;
23490;SDS011;14683;50.038;8.078;2024-02-14T08:14:55;3.88;;;2.17;;
23490;SDS011;14683;50.038;8.078;2024-02-14T08:17:56;3.08;;;1.73;;
23490;SDS011;14683;50.038;8.078;2024-02-14T08:20:59;2.13;;;1.92;;
23490;SDS011;14683;50.038;8.078;2024-02-14T08:24:01;4.18;;;2.10;;
23490;SDS011;14683;50.038;8.078;2024-02-14T08:27:02;1.90;;;1.80;;
23490;SDS011;14683;50.038;8.078;2024-02-14T08:30:07;3.25;;;1.90;;
23490;SDS011;14683;50.038;8.078;2024-02-14T08:33:09;4.03;;;2.10;;
23490;SDS011;14683;50.038;8.078;2024-02-14T08:36:11;3.55;;;2.30;;
23490;SDS011;14683;50.038;8.078;2024-02-14T08:39:13;1.80;;;1.70;;
23490;SDS011;14683;50.038;8.078;2024-02-14T08:42:14;3.53;;;2.33;;
23490;SDS011;14683;50.038;8.078;2024-02-14T08:45:15;2.72;;;2.38;;
23490;SDS011;14683;50.038;8.078;2024-02-14T08:48:16;2.30;;;2.00;;
23490;SDS011;14683;50.038;8.078;2024-02-14T08:51:18;2.38;;;2.13;;
23490;SDS011;14683;50.038;8.078;2024-02-14T08:54:21;2.85;;;2.22;;
23490;SDS011;14683;50.038;8.078;2024-02-14T08:57:23;3.00;;;2.20;;
23490;SDS011;14683;50.038;8.078;2024-02-14T09:00:25;4.03;;;2.42;;
23490;SDS011;14683;50.038;8.078;2024-02-14T09:03:26;2.92;;;2.45;;
23490;SDS011;14683;50.038;8.078;2024-02-14T09:06:27;3.38;;;2.03;;
23490;SDS011;14683;50.038;8.078;2024-02-14T09:09:28;3.63;;;2.78;;
23490;SDS011;14683;50.038;8.078;2024-02-14T09:12:29;3.85;;;2.60;;
23490;SDS011;14683;50.038;8.078;2024-02-14T09:15:30;4.45;;;2.42;;
23490;SDS011;14683;50.038;8.078;2024-02-14T09:18:32;4.03;;;2.00;;
23490;SDS011;14683;50.038;8.078;2024-02-14T09:21:33;2.53;;;2.17;;
23490;SDS011;14683;50.038;8.078;2024-02-14T09:24:36;2.85;;;2.42;;
23490;SDS011;14683;50.038;8.078;2024-02-14T09:27:37;3.38;;;2.40;;
23490;SDS011;14683;50.038;8.078;2024-02-14T09:30:38;2.78;;;2.20;;
23490;SDS011;14683;50.038;8.078;2024-02-14T09:33:39;3.10;;;2.33;;
23490;SDS011;14683;50.038;8.078;2024-02-14T09:36:41;3.10;;;2.20;;
23490;SDS011;14683;50.038;8.078;2024-02-14T09:39:42;2.35;;;2.00;;
23490;SDS011;14683;50.038;8.078;2024-02-14T09:42:46;3.20;;;2.22;;
23490;SDS011;14683;50.038;8.078;2024-02-14T09:45:50;2.40;;;2.20;;
23490;SDS011;14683;50.038;8.078;2024-02-14T09:48:52;5.88;;;2.47;;
23490;SDS011;14683;50.038;8.078;2024-02-14T09:51:54;2.40;;;1.95;;
23490;SDS011;14683;50.038;8.078;2024-02-14T09:54:56;2.20;;;2.00;;
23490;SDS011;14683;50.038;8.078;2024-02-14T09:58:00;2.88;;;2.63;;
23490;SDS011;14683;50.038;8.078;2024-02-14T10:01:04;3.28;;;2.55;;
23490;SDS011;14683;50.038;8.078;2024-02-14T10:04:07;2.97;;;1.88;;
23490;SDS011;14683;50.038;8.078;2024-02-14T10:07:08;3.40;;;2.40;;
23490;SDS011;14683;50.038;8.078;2024-02-14T10:10:09;2.75;;;2.55;;
23490;SDS011;14683;50.038;8.078;2024-02-14T10:13:11;1.98;;;1.80;;
23490;SDS011;14683;50.038;8.078;2024-02-14T10:16:12;2.25;;;2.05;;
23490;SDS011;14683;50.038;8.078;2024-02-14T10:19:17;3.13;;;2.08;;
23490;SDS011;14683;50.038;8.078;2024-02-14T10:22:18;2.88;;;2.33;;
23490;SDS011;14683;50.038;8.078;2024-02-14T10:25:19;2.58;;;1.90;;
23490;SDS011;14683;50.038;8.078;2024-02-14T10:28:22;1.90;;;1.63;;
23490;SDS011;14683;50.038;8.078;2024-02-14T10:31:24;2.35;;;2.00;;
23490;SDS011;14683;50.038;8.078;2024-02-14T10:34:26;2.00;;;1.83;;
23490;SDS011;14683;50.038;8.078;2024-02-14T10:37:28;2.35;;;1.60;;
23490;SDS011;14683;50.038;8.078;2024-02-14T10:40:31;3.17;;;1.52;;
23490;SDS011;14683;50.038;8.078;2024-02-14T10:43:34;2.25;;;1.38;;
23490;SDS011;14683;50.038;8.078;2024-02-14T10:46:37;2.05;;;1.33;;
23490;SDS011;14683;50.038;8.078;2024-02-14T10:49:38;2.13;;;1.10;;
23490;SDS011;14683;50.038;8.078;2024-02-14T10:52:41;1.92;;;1.40;;
23490;SDS011;14683;50.038;8.078;2024-02-14T10:55:45;1.65;;;1.10;;
23490;SDS011;14683;50.038;8.078;2024-02-14T10:58:47;1.20;;;1.10;;
23490;SDS011;14683;50.038;8.078;2024-02-14T11:01:49;1.83;;;1.10;;
23490;SDS011;14683;50.038;8.078;2024-02-14T11:04:52;1.40;;;1.33;;
23490;SDS011;14683;50.038;8.078;2024-02-14T11:07:54;1.50;;;1.20;;
23490;SDS011;14683;50.038;8.078;2024-02-14T11:10:55;3.92;;;1.33;;
23490;SDS011;14683;50.038;8.078;2024-02-14T11:13:57;1.75;;;1.27;;
23490;SDS011;14683;50.038;8.078;2024-02-14T11:16:59;2.35;;;1.75;;
23490;SDS011;14683;50.038;8.078;2024-02-14T11:20:10;3.13;;;1.42;;
23490;SDS011;14683;50.038;8.078;2024-02-14T11:23:20;1.80;;;1.27;;
23490;SDS011;14683;50.038;8.078;2024-02-14T11:26:22;1.70;;;1.60;;
23490;SDS011;14683;50.038;8.078;2024-02-14T11:29:29;1.90;;;1.73;;
23490;SDS011;14683;50.038;8.078;2024-02-14T11:32:31;2.23;;;1.93;;
23490;SDS011;14683;50.038;8.078;2024-02-14T11:35:32;2.25;;;1.77;;
23490;SDS011;14683;50.038;8.078;2024-02-14T11:38:33;2.00;;;1.77;;
23490;SDS011;14683;50.038;8.078;2024-02-14T11:41:35;5.10;;;2.10;;
23490;SDS011;14683;50.038;8.078;2024-02-14T11:44:36;3.70;;;2.45;;
23490;SDS011;14683;50.038;8.078;2024-02-14T11:47:38;2.60;;;2.20;;
23490;SDS011;14683;50.038;8.078;2024-02-14T11:50:40;4.18;;;2.30;;
23490;SDS011;14683;50.038;8.078;2024-02-14T11:53:42;2.35;;;1.70;;
23490;SDS011;14683;50.038;8.078;2024-02-14T11:56:43;2.10;;;1.80;;
23490;SDS011;14683;50.038;8.078;2024-02-14T11:59:44;2.45;;;2.25;;
23490;SDS011;14683;50.038;8.078;2024-02-14T12:02:48;2.63;;;2.00;;
23490;SDS011;14683;50.038;8.078;2024-02-14T12:05:50;2.30;;;2.03;;
23490;SDS011;14683;50.038;8.078;2024-02-14T12:08:56;4.60;;;2.25;;
23490;SDS011;14683;50.038;8.078;2024-02-14T12:12:02;1.92;;;1.83;;
23490;SDS011;14683;50.038;8.078;2024-02-14T12:15:03;3.58;;;2.17;;
23490;SDS011;14683;50.038;8.078;2024-02-14T12:18:07;3.25;;;2.28;;
23490;SDS011;14683;50.038;8.078;2024-02-14T12:21:10;2.10;;;2.00;;
23490;SDS011;14683;50.038;8.078;2024-02-14T12:24:11;2.88;;;2.30;;
23490;SDS011;14683;50.038;8.078;2024-02-14T12:27:16;2.53;;;2.28;;
23490;SDS011;14683;50.038;8.078;2024-02-14T12:30:18;2.58;;;2.38;;
23490;SDS011;14683;50.038;8.078;2024-02-14T12:33:20;2.30;;;2.10;;
23490;SDS011;14683;50.038;8.078;2024-02-14T12:36:22;2.83;;;2.53;;
23490;SDS011;14683;50.038;8.078;2024-02-14T12:39:23;2.20;;;2.03;;
23490;SDS011;14683;50.038;8.078;2024-02-14T12:42:26;2.70;;;2.50;;
23490;SDS011;14683;50.038;8.078;2024-02-14T12:45:28;3.85;;;2.50;;
23490;SDS011;14683;50.038;8.078;2024-02-14T12:48:29;3.67;;;2.50;;
23490;SDS011;14683;50.038;8.078;2024-02-14T12:51:31;2.80;;;2.47;;
23490;SDS011;14683;50.038;8.078;2024-02-14T12:54:32;2.80;;;2.60;;
23490;SDS011;14683;50.038;8.078;2024-02-14T12:57:33;3.50;;;3.00;;
23490;SDS011;14683;50.038;8.078;2024-02-14T13:00:34;3.33;;;2.70;;
23490;SDS011;14683;50.038;8.078;2024-02-14T13:03:35;3.90;;;3.10;;
23490;SDS011;14683;50.038;8.078;2024-02-14T13:06:36;3.20;;;2.90;;
23490;SDS011;14683;50.038;8.078;2024-02-14T13:09:38;6.38;;;3.90;;
23490;SDS011;14683;50.038;8.078;2024-02-14T13:12:40;5.38;;;3.38;;
23490;SDS011;14683;50.038;8.078;2024-02-14T13:15:44;4.00;;;3.58;;
23490;SDS011;14683;50.038;8.078;2024-02-14T13:18:45;5.82;;;3.53;;
23490;SDS011;14683;50.038;8.078;2024-02-14T13:21:46;4.95;;;3.92;;
23490;SDS011;14683;50.038;8.078;2024-02-14T13:24:48;5.93;;;4.18;;
23490;SDS011;14683;50.038;8.078;2024-02-14T13:27:50;5.60;;;4.13;;
23490;SDS011;14683;50.038;8.078;2024-02-14T13:30:51;5.65;;;4.13;;
23490;SDS011;14683;50.038;8.078;2024-02-14T13:33:52;5.00;;;3.80;;
23490;SDS011;14683;50.038;8.078;2024-02-14T13:36:53;6.82;;;3.95;;
23490;SDS011;14683;50.038;8.078;2024-02-14T13:39:54;4.70;;;3.55;;
23490;SDS011;14683;50.038;8.078;2024-02-14T13:42:56;5.07;;;4.32;;
23490;SDS011;14683;50.038;8.078;2024-02-14T13:45:57;6.10;;;4.22;;
23490;SDS011;14683;50.038;8.078;2024-02-14T13:48:58;5.15;;;4.32;;
23490;SDS011;14683;50.038;8.078;2024-02-14T13:51:59;4.85;;;4.30;;
23490;SDS011;14683;50.038;8.078;2024-02-14T13:55:01;8.48;;;5.57;;
23490;SDS011;14683;50.038;8.078;2024-02-14T13:58:03;5.32;;;4.82;;
23490;SDS011;14683;50.038;8.078;2024-02-14T14:01:05;6.85;;;5.30;;
23490;SDS011;14683;50.038;8.078;2024-02-14T14:04:07;5.93;;;4.97;;
23490;SDS011;14683;50.038;8.078;2024-02-14T14:07:08;5.60;;;4.70;;
23490;SDS011;14683;50.038;8.078;2024-02-14T14:10:10;4.57;;;4.07;;
23490;SDS011;14683;50.038;8.078;2024-02-14T14:13:11;4.38;;;3.67;;
23490;SDS011;14683;50.038;8.078;2024-02-14T14:16:14;5.57;;;3.90;;
23490;SDS011;14683;50.038;8.078;2024-02-14T14:19:15;4.60;;;3.80;;
23490;SDS011;14683;50.038;8.078;2024-02-14T14:22:17;4.13;;;3.50;;
23490;SDS011;14683;50.038;8.078;2024-02-14T14:25:18;4.30;;;3.70;;
23490;SDS011;14683;50.038;8.078;2024-02-14T14:28:19;4.65;;;3.67;;
23490;SDS011;14683;50.038;8.078;2024-02-14T14:31:25;3.47;;;3.13;;
23490;SDS011;14683;50.038;8.078;2024-02-14T14:34:26;4.15;;;3.25;;
23490;SDS011;14683;50.038;8.078;2024-02-14T14:37:27;3.53;;;3.10;;
23490;SDS011;14683;50.038;8.078;2024-02-14T14:40:29;4.55;;;2.92;;
23490;SDS011;14683;50.038;8.078;2024-02-14T14:43:30;4.03;;;3.70;;
23490;SDS011;14683;50.038;8.078;2024-02-14T14:46:31;4.18;;;2.80;;
23490;SDS011;14683;50.038;8.078;2024-02-14T14:49:33;3.63;;;3.33;;
23490;SDS011;14683;50.038;8.078;2024-02-14T14:52:35;5.28;;;3.83;;
23490;SDS011;14683;50.038;8.078;2024-02-14T14:55:50;4.07;;;3.67;;
23490;SDS011;14683;50.038;8.078;2024-02-14T14:58:52;3.55;;;3.25;;
23490;SDS011;14683;50.038;8.078;2024-02-14T15:01:54;4.00;;;3.50;;
23490;SDS011;14683;50.038;8.078;2024-02-14T15:04:55;4.53;;;3.30;;
23490;SDS011;14683;50.038;8.078;2024-02-14T15:07:56;3.83;;;3.30;;
23490;SDS011;14683;50.038;8.078;2024-02-14T15:10:57;4.18;;;3.40;;
23490;SDS011;14683;50.038;8.078;2024-02-14T15:13:59;3.75;;;3.45;;
23490;SDS011;14683;50.038;8.078;2024-02-14T15:17:00;3.85;;;3.00;;
23490;SDS011;14683;50.038;8.078;2024-02-14T15:20:01;3.15;;;2.95;;
23490;SDS011;14683;50.038;8.078;2024-02-14T15:23:04;3.00;;;2.80;;
23490;SDS011;14683;50.038;8.078;2024-02-14T15:26:07;5.15;;;2.65;;
23490;SDS011;14683;50.038;8.078;2024-02-14T15:29:12;3.15;;;2.83;;
23490;SDS011;14683;50.038;8.078;2024-02-14T15:32:32;3.00;;;2.80;;
23490;SDS011;14683;50.038;8.078;2024-02-14T15:35:55;2.42;;;2.25;;
23490;SDS011;14683;50.038;8.078;2024-02-14T15:38:57;2.80;;;2.60;;
23490;SDS011;14683;50.038;8.078;2024-02-14T15:41:58;2.90;;;2.70;;
23490;SDS011;14683;50.038;8.078;2024-02-14T15:44:59;2.95;;;2.75;;
23490;SDS011;14683;50.038;8.078;2024-02-14T15:48:01;3.92;;;3.22;;
23490;SDS011;14683;50.038;8.078;2024-02-14T15:51:02;6.13;;;4.88;;
23490;SDS011;14683;50.038;8.078;2024-02-14T15:54:03;3.40;;;3.10;;
23490;SDS011;14683;50.038;8.078;2024-02-14T15:57:05;3.72;;;3.42;;
23490;SDS011;14683;50.038;8.078;2024-02-14T16:00:06;3.17;;;2.88;;
23490;SDS011;14683;50.038;8.078;2024-02-14T16:03:11;3.15;;;2.95;;
23490;SDS011;14683;50.038;8.078;2024-02-14T16:06:12;3.80;;;3.35;;
23490;SDS011;14683;50.038;8.078;2024-02-14T16:09:13;3.60;;;3.28;;
23490;SDS011;14683;50.038;8.078;2024-02-14T16:12:14;2.90;;;2.67;;
23490;SDS011;14683;50.038;8.078;2024-02-14T16:15:16;3.95;;;3.20;;
23490;SDS011;14683;50.038;8.078;2024-02-14T16:18:21;4.00;;;3.15;;
23490;SDS011;14683;50.038;8.078;2024-02-14T16:21:22;3.10;;;2.85;;
23490;SDS011;14683;50.038;8.078;2024-02-14T16:24:23;3.00;;;2.80;;
23490;SDS011;14683;50.038;8.078;2024-02-14T16:27:24;3.58;;;3.28;;
23490;SDS011;14683;50.038;8.078;2024-02-14T16:30:25;4.88;;;4.03;;
23490;SDS011;14683;50.038;8.078;2024-02-14T16:33:27;3.65;;;3.17;;
23490;SDS011;14683;50.038;8.078;2024-02-14T16:36:28;3.65;;;3.35;;
23490;SDS011;14683;50.038;8.078;2024-02-14T16:39:29;4.57;;;3.10;;
23490;SDS011;14683;50.038;8.078;2024-02-14T16:42:30;3.42;;;3.13;;
23490;SDS011;14683;50.038;8.078;2024-02-14T16:45:31;3.83;;;3.42;;
23490;SDS011;14683;50.038;8.078;2024-02-14T16:48:32;4.30;;;3.90;;
23490;SDS011;14683;50.038;8.078;2024-02-14T16:51:33;5.43;;;4.18;;
23490;SDS011;14683;50.038;8.078;2024-02-14T16:54:35;3.10;;;2.80;;
23490;SDS011;14683;50.038;8.078;2024-02-14T16:57:36;2.90;;;2.70;;
23490;SDS011;14683;50.038;8.078;2024-02-14T17:00:37;3.17;;;2.97;;
23490;SDS011;14683;50.038;8.078;2024-02-14T17:03:38;2.97;;;2.78;;
23490;SDS011;14683;50.038;8.078;2024-02-14T17:06:40;3.50;;;2.88;;
23490;SDS011;14683;50.038;8.078;2024-02-14T17:09:41;3.15;;;2.95;;
23490;SDS011;14683;50.038;8.078;2024-02-14T17:12:43;3.17;;;2.97;;
23490;SDS011;14683;50.038;8.078;2024-02-14T17:15:44;2.70;;;2.50;;
23490;SDS011;14683;50.038;8.078;2024-02-14T17:18:45;2.72;;;2.53;;
23490;SDS011;14683;50.038;8.078;2024-02-14T17:21:47;2.47;;;2.28;;
23490;SDS011;14683;50.038;8.078;2024-02-14T17:24:48;2.47;;;2.20;;
23490;SDS011;14683;50.038;8.078;2024-02-14T17:27:49;2.60;;;2.40;;
23490;SDS011;14683;50.038;8.078;2024-02-14T17:30:51;2.47;;;2.30;;
23490;SDS011;14683;50.038;8.078;2024-02-14T17:33:52;2.50;;;2.30;;
23490;SDS011;14683;50.038;8.078;2024-02-14T17:36:55;2.17;;;2.03;;
23490;SDS011;14683;50.038;8.078;2024-02-14T17:39:57;2.20;;;2.10;;
23490;SDS011;14683;50.038;8.078;2024-02-14T17:42:58;1.98;;;1.88;;
23490;SDS011;14683;50.038;8.078;2024-02-14T17:46:00;2.15;;;2.03;;
23490;SDS011;14683;50.038;8.078;2024-02-14T17:49:02;2.60;;;2.40;;
23490;SDS011;14683;50.038;8.078;2024-02-14T17:52:03;2.13;;;2.03;;
23490;SDS011;14683;50.038;8.078;2024-02-14T17:55:04;2.42;;;2.22;;
23490;SDS011;14683;50.038;8.078;2024-02-14T17:58:06;2.35;;;2.20;;
23490;SDS011;14683;50.038;8.078;2024-02-14T18:01:07;2.30;;;2.20;;
23490;SDS011;14683;50.038;8.078;2024-02-14T18:04:10;2.20;;;2.10;;
23490;SDS011;14683;50.038;8.078;2024-02-14T18:07:11;2.47;;;2.28;;
23490;SDS011;14683;50.038;8.078;2024-02-14T18:10:12;2.80;;;2.33;;
23490;SDS011;14683;50.038;8.078;2024-02-14T18:13:13;2.63;;;2.42;;
23490;SDS011;14683;50.038;8.078;2024-02-14T18:16:15;3.10;;;2.20;;
23490;SDS011;14683;50.038;8.078;2024-02-14T18:19:16;1.92;;;1.83;;
23490;SDS011;14683;50.038;8.078;2024-02-14T18:22:17;4.57;;;3.10;;
23490;SDS011;14683;50.038;8.078;2024-02-14T18:25:19;4.60;;;3.50;;
23490;SDS011;14683;50.038;8.078;2024-02-14T18:28:20;8.73;;;5.88;;
23490;SDS011;14683;50.038;8.078;2024-02-14T18:31:21;24.70;;;14.00;;
23490;SDS011;14683;50.038;8.078;2024-02-14T18:34:23;5.35;;;4.85;;
23490;SDS011;14683;50.038;8.078;2024-02-14T18:37:24;3.65;;;2.78;;
23490;SDS011;14683;50.038;8.078;2024-02-14T18:40:25;2.17;;;2.08;;
23490;SDS011;14683;50.038;8.078;2024-02-14T18:43:26;2.15;;;2.05;;
23490;SDS011;14683;50.038;8.078;2024-02-14T18:46:28;2.40;;;2.20;;
23490;SDS011;14683;50.038;8.078;2024-02-14T18:49:29;2.80;;;2.60;;
23490;SDS011;14683;50.038;8.078;2024-02-14T18:52:30;2.40;;;2.30;;
23490;SDS011;14683;50.038;8.078;2024-02-14T18:55:32;2.38;;;2.25;;
23490;SDS011;14683;50.038;8.078;2024-02-14T18:58:33;2.50;;;2.40;;
23490;SDS011;14683;50.038;8.078;2024-02-14T19:01:34;3.35;;;3.05;;
23490;SDS011;14683;50.038;8.078;2024-02-14T19:04:35;2.67;;;2.58;;
23490;SDS011;14683;50.038;8.078;2024-02-14T19:07:38;3.00;;;2.75;;
23490;SDS011;14683;50.038;8.078;2024-02-14T19:10:40;2.85;;;2.65;;
23490;SDS011;14683;50.038;8.078;2024-02-14T19:13:41;3.05;;;2.53;;
23490;SDS011;14683;50.038;8.078;2024-02-14T19:16:42;2.80;;;2.60;;
23490;SDS011;14683;50.038;8.078;2024-02-14T19:19:44;2.80;;;2.60;;
23490;SDS011;14683;50.038;8.078;2024-02-14T19:22:45;2.60;;;2.40;;
23490;SDS011;14683;50.038;8.078;2024-02-14T19:25:47;3.22;;;2.80;;
23490;SDS011;14683;50.038;8.078;2024-02-14T19:28:49;3.15;;;2.95;;
23490;SDS011;14683;50.038;8.078;2024-02-14T19:31:50;3.50;;;3.20;;
23490;SDS011;14683;50.038;8.078;2024-02-14T19:34:52;3.60;;;3.30;;
23490;SDS011;14683;50.038;8.078;2024-02-14T19:37:53;3.42;;;3.13;;
23490;SDS011;14683;50.038;8.078;2024-02-14T19:40:54;4.45;;;3.88;;
23490;SDS011;14683;50.038;8.078;2024-02-14T19:43:55;4.43;;;4.03;;
23490;SDS011;14683;50.038;8.078;2024-02-14T19:46:56;4.60;;;4.20;;
23490;SDS011;14683;50.038;8.078;2024-02-14T19:49:57;5.45;;;4.95;;
23490;SDS011;14683;50.038;8.078;2024-02-14T19:53:04;5.30;;;4.80;;
23490;SDS011;14683;50.038;8.078;2024-02-14T19:56:06;4.20;;;3.88;;
23490;SDS011;14683;50.038;8.078;2024-02-14T19:59:07;5.10;;;4.70;;
23490;SDS011;14683;50.038;8.078;2024-02-14T20:02:08;6.35;;;5.07;;
23490;SDS011;14683;50.038;8.078;2024-02-14T20:05:09;6.88;;;5.90;;
23490;SDS011;14683;50.038;8.078;2024-02-14T20:08:12;6.53;;;5.90;;
23490;SDS011;14683;50.038;8.078;2024-02-14T20:11:14;6.97;;;6.38;;
23490;SDS011;14683;50.038;8.078;2024-02-14T20:14:15;6.97;;;6.15;;
23490;SDS011;14683;50.038;8.078;2024-02-14T20:17:17;6.45;;;5.85;;
23490;SDS011;14683;50.038;8.078;2024-02-14T20:20:19;6.28;;;5.50;;
23490;SDS011;14683;50.038;8.078;2024-02-14T20:23:24;6.75;;;6.03;;
23490;SDS011;14683;50.038;8.078;2024-02-14T20:26:34;6.32;;;5.72;;
23490;SDS011;14683;50.038;8.078;2024-02-14T20:29:35;6.30;;;5.70;;
23490;SDS011;14683;50.038;8.078;2024-02-14T20:32:37;7.07;;;6.32;;
23490;SDS011;14683;50.038;8.078;2024-02-14T20:35:42;6.80;;;6.10;;
23490;SDS011;14683;50.038;8.078;2024-02-14T20:38:43;7.15;;;6.45;;
23490;SDS011;14683;50.038;8.078;2024-02-14T20:41:45;6.97;;;6.38;;
23490;SDS011;14683;50.038;8.078;2024-02-14T20:44:46;7.95;;;6.97;;
23490;SDS011;14683;50.038;8.078;2024-02-14T20:47:47;7.63;;;6.88;;
